createdAt,value
2019-04-10T00:02:57.854Z,8.20
2019-04-10T00:05:45.900Z,8.40
2019-04-10T00:08:34.506Z,8.40
2019-04-10T00:11:22.857Z,8.50
2019-04-10T00:14:10.309Z,8.50
2019-04-10T00:16:58.215Z,8.60
2019-04-10T00:19:45.936Z,8.60
2019-04-10T00:22:34.095Z,8.50
2019-04-10T00:25:22.071Z,8.50
2019-04-10T00:28:09.552Z,8.50
2019-04-10T00:30:57.714Z,8.40
2019-04-10T00:33:45.352Z,8.50
2019-04-10T00:36:33.190Z,8.50
2019-04-10T00:39:22.235Z,8.60
2019-04-10T00:42:10.495Z,8.60
2019-04-10T00:44:58.357Z,8.60
2019-04-10T00:47:46.175Z,8.60
2019-04-10T00:50:34.797Z,8.60
2019-04-10T00:53:23.235Z,8.60
2019-04-10T00:56:10.951Z,8.60
2019-04-10T00:58:59.629Z,8.60
2019-04-10T01:01:47.863Z,8.60
2019-04-10T01:04:36.224Z,8.60
2019-04-10T01:07:33.701Z,8.60
2019-04-10T01:10:14.117Z,8.60
2019-04-10T01:13:02.766Z,8.50
2019-04-10T01:15:50.994Z,8.50
2019-04-10T01:18:39.480Z,8.50
2019-04-10T01:21:28.445Z,8.50
2019-04-10T01:24:17.442Z,8.50
2019-04-10T01:27:05.612Z,8.50
2019-04-10T01:29:53.717Z,8.50
2019-04-10T01:32:41.895Z,8.40
2019-04-10T01:35:29.970Z,8.40
2019-04-10T01:38:17.637Z,8.40
2019-04-10T01:41:05.817Z,8.40
2019-04-10T01:43:53.441Z,8.40
2019-04-10T01:46:42.358Z,8.30
2019-04-10T01:49:30.064Z,8.30
2019-04-10T01:52:17.868Z,8.30
2019-04-10T01:55:18.070Z,8.30
2019-04-10T01:57:56.726Z,8.30
2019-04-10T02:00:48.819Z,8.30
2019-04-10T02:03:36.289Z,8.30
2019-04-10T02:06:25.234Z,8.20
2019-04-10T02:09:13.341Z,8.20
2019-04-10T02:12:02.131Z,8.20
2019-04-10T02:14:49.549Z,8.20
2019-04-10T02:17:37.673Z,8.20
2019-04-10T02:20:25.310Z,8.20
2019-04-10T02:23:12.797Z,8.10
2019-04-10T02:26:01.169Z,8.10
2019-04-10T02:28:49.420Z,7.90
2019-04-10T02:31:38.904Z,8.00
2019-04-10T02:34:26.404Z,8.00
2019-04-10T02:37:15.265Z,8.00
2019-04-10T02:40:05.065Z,8.10
2019-04-10T02:42:54.511Z,8.10
2019-04-10T02:45:44.371Z,8.10
2019-04-10T02:48:32.156Z,8.10
2019-04-10T02:51:22.895Z,8.10
2019-04-10T02:54:11.209Z,8.10
2019-04-10T02:56:58.643Z,8.10
2019-04-10T02:59:47.126Z,8.00
2019-04-10T03:02:36.236Z,8.10
2019-04-10T03:05:26.683Z,8.00
2019-04-10T03:08:15.848Z,8.10
2019-04-10T03:11:06.277Z,8.10
2019-04-10T03:13:53.578Z,8.10
2019-04-10T03:16:41.791Z,8.10
2019-04-10T03:19:29.907Z,8.10
2019-04-10T03:22:18.716Z,8.10
2019-04-10T03:25:06.829Z,8.10
2019-04-10T03:27:54.752Z,8.20
2019-04-10T03:30:44.133Z,8.20
2019-04-10T03:33:50.493Z,8.20
2019-04-10T03:36:40.223Z,8.20
2019-04-10T03:39:28.318Z,8.20
2019-04-10T03:42:16.911Z,8.20
2019-04-10T03:45:05.574Z,8.20
2019-04-10T03:47:52.861Z,8.20
2019-04-10T03:50:41.593Z,8.20
2019-04-10T03:53:29.916Z,8.20
2019-04-10T03:56:18.059Z,8.20
2019-04-10T03:59:06.324Z,8.20
2019-04-10T04:01:53.917Z,8.20
2019-04-10T04:04:41.775Z,8.20
2019-04-10T04:07:30.473Z,8.20
2019-04-10T04:10:18.340Z,8.20
2019-04-10T04:13:07.514Z,8.20
2019-04-10T04:15:55.283Z,8.20
2019-04-10T04:18:43.557Z,8.20
2019-04-10T04:21:32.055Z,8.20
2019-04-10T04:24:21.217Z,8.10
2019-04-10T04:27:08.966Z,8.10
2019-04-10T04:29:57.440Z,8.00
2019-04-10T04:32:46.003Z,8.10
2019-04-10T04:35:34.703Z,8.00
2019-04-10T04:38:23.593Z,8.00
2019-04-10T04:41:11.863Z,8.00
2019-04-10T04:43:59.837Z,8.00
2019-04-10T04:46:48.327Z,8.00
2019-04-10T04:49:35.888Z,8.00
2019-04-10T04:52:23.966Z,8.00
2019-04-10T04:55:12.200Z,8.00
2019-04-10T04:57:59.896Z,8.00
2019-04-10T05:00:48.284Z,8.00
2019-04-10T05:03:35.473Z,8.00
2019-04-10T05:06:24.262Z,8.10
2019-04-10T05:09:14.380Z,7.90
2019-04-10T05:12:02.857Z,7.90
2019-04-10T05:14:51.586Z,7.90
2019-04-10T05:17:39.735Z,7.90
2019-04-10T05:20:40.350Z,8.00
2019-04-10T05:23:18.054Z,8.00
2019-04-10T05:26:06.191Z,8.00
2019-04-10T05:28:54.914Z,8.00
2019-04-10T05:31:42.759Z,8.10
2019-04-10T05:34:30.389Z,8.10
2019-04-10T05:37:19.116Z,8.10
2019-04-10T05:40:07.674Z,8.20
2019-04-10T05:42:55.664Z,8.20
2019-04-10T05:45:43.456Z,8.20
2019-04-10T05:48:31.529Z,8.20
2019-04-10T05:51:19.765Z,8.20
2019-04-10T05:54:08.533Z,8.20
2019-04-10T05:56:56.213Z,8.30
2019-04-10T05:59:44.032Z,8.30
2019-04-10T06:02:32.180Z,8.30
2019-04-10T06:05:20.308Z,8.30
2019-04-10T06:08:07.892Z,8.30
2019-04-10T06:10:56.099Z,8.40
2019-04-10T06:13:43.731Z,8.40
2019-04-10T06:16:32.266Z,8.40
2019-04-10T06:19:20.036Z,8.40
2019-04-10T06:22:09.589Z,8.40
2019-04-10T06:24:56.892Z,8.40
2019-04-10T06:27:44.992Z,8.50
2019-04-10T06:30:32.612Z,8.50
2019-04-10T06:33:20.489Z,8.50
2019-04-10T06:36:09.165Z,8.50
2019-04-10T06:38:57.275Z,8.40
2019-04-10T06:41:44.876Z,8.50
2019-04-10T06:44:32.756Z,8.60
2019-04-10T06:47:20.435Z,8.60
2019-04-10T06:50:08.589Z,8.60
2019-04-10T06:52:56.885Z,8.40
2019-04-10T06:55:44.961Z,8.50
2019-04-10T06:58:32.423Z,8.40
2019-04-10T07:01:21.567Z,8.60
2019-04-10T07:04:10.133Z,8.60
2019-04-10T07:07:04.985Z,8.70
2019-04-10T07:09:48.041Z,8.80
2019-04-10T07:12:35.806Z,8.80
2019-04-10T07:15:24.168Z,8.80
2019-04-10T07:18:16.966Z,8.90
2019-04-10T07:21:04.168Z,8.90
2019-04-10T07:23:52.431Z,9.00
2019-04-10T07:26:44.492Z,8.90
2019-04-10T07:29:30.732Z,9.00
2019-04-10T07:32:19.424Z,9.00
2019-04-10T07:35:08.850Z,9.10
2019-04-10T07:37:58.076Z,9.10
2019-04-10T07:40:47.023Z,9.10
2019-04-10T07:43:34.776Z,9.10
2019-04-10T07:46:22.582Z,9.20
2019-04-10T07:49:10.983Z,9.20
2019-04-10T07:51:59.113Z,9.20
2019-04-10T07:54:46.667Z,9.30
2019-04-10T07:57:34.244Z,9.30
2019-04-10T08:00:22.302Z,9.20
2019-04-10T08:03:10.454Z,9.30
2019-04-10T08:05:58.221Z,9.40
2019-04-10T08:08:46.840Z,9.50
2019-04-10T08:11:34.959Z,9.60
2019-04-10T08:14:23.759Z,9.60
2019-04-10T08:17:12.158Z,9.60
2019-04-10T08:20:01.488Z,9.70
2019-04-10T08:22:49.184Z,9.80
2019-04-10T08:25:36.825Z,9.80
2019-04-10T08:28:24.480Z,9.80
2019-04-10T08:31:12.745Z,9.90
2019-04-10T08:34:01.133Z,9.90
2019-04-10T08:36:51.425Z,9.90
2019-04-10T08:39:42.933Z,10.00
2019-04-10T08:42:28.040Z,10.00
2019-04-10T08:45:16.714Z,10.00
2019-04-10T08:48:05.747Z,10.00
2019-04-10T08:50:53.252Z,10.00
2019-04-10T08:53:40.886Z,10.00
2019-04-10T08:56:28.595Z,9.90
2019-04-10T08:59:16.539Z,10.00
2019-04-10T09:02:04.251Z,10.00
2019-04-10T09:04:53.177Z,10.00
2019-04-10T09:07:41.266Z,10.00
2019-04-10T09:10:30.154Z,9.90
2019-04-10T09:13:18.207Z,9.90
2019-04-10T09:16:06.731Z,9.90
2019-04-10T09:18:55.566Z,9.90
2019-04-10T09:21:43.729Z,9.90
2019-04-10T09:24:31.451Z,9.80
2019-04-10T09:27:19.288Z,9.80
2019-04-10T09:30:08.729Z,9.80
2019-04-10T09:32:57.032Z,9.80
2019-04-10T09:35:45.292Z,9.90
2019-04-10T09:38:32.836Z,9.90
2019-04-10T09:41:21.603Z,9.90
2019-04-10T09:44:10.299Z,9.90
2019-04-10T09:46:58.131Z,9.80
2019-04-10T09:49:47.050Z,9.90
2019-04-10T09:52:35.658Z,9.90
2019-04-10T09:55:24.283Z,10.00
2019-04-10T09:58:13.246Z,9.90
2019-04-10T10:01:03.089Z,9.90
2019-04-10T10:03:51.144Z,9.90
2019-04-10T10:06:39.611Z,9.90
2019-04-10T10:09:29.167Z,10.00
2019-04-10T10:12:17.965Z,9.90
2019-04-10T10:15:07.440Z,9.90
2019-04-10T10:17:55.061Z,9.90
2019-04-10T10:20:44.005Z,9.90
2019-04-10T10:23:31.797Z,9.90
2019-04-10T10:26:20.197Z,10.00
2019-04-10T10:29:09.042Z,10.00
2019-04-10T10:31:57.028Z,10.10
2019-04-10T10:34:45.168Z,10.20
2019-04-10T10:37:33.329Z,10.20
2019-04-10T10:40:21.577Z,10.30
2019-04-10T10:43:10.009Z,10.30
2019-04-10T10:45:58.858Z,10.20
2019-04-10T10:48:46.351Z,10.20
2019-04-10T10:51:34.992Z,10.20
2019-04-10T10:54:23.551Z,10.30
2019-04-10T10:57:11.230Z,10.40
2019-04-10T10:59:59.858Z,10.40
2019-04-10T11:02:47.812Z,10.40
2019-04-10T11:05:37.174Z,10.40
2019-04-10T11:08:25.328Z,10.40
2019-04-10T11:11:12.927Z,10.40
2019-04-10T11:14:01.263Z,10.40
2019-04-10T11:16:49.460Z,10.50
2019-04-10T11:19:37.535Z,10.60
2019-04-10T11:22:26.133Z,10.70
2019-04-10T11:25:15.715Z,10.80
2019-04-10T11:28:04.001Z,10.90
2019-04-10T11:30:53.473Z,10.90
2019-04-10T11:33:41.230Z,10.80
2019-04-10T11:36:30.014Z,10.80
2019-04-10T11:39:23.401Z,10.70
2019-04-10T11:42:07.351Z,10.60
2019-04-10T11:44:56.896Z,10.60
2019-04-10T11:47:44.991Z,10.60
2019-04-10T11:50:34.648Z,10.70
2019-04-10T11:53:23.858Z,10.70
2019-04-10T11:56:11.717Z,10.50
2019-04-10T11:59:01.502Z,10.50
2019-04-10T12:01:50.682Z,10.50
2019-04-10T12:04:48.023Z,10.50
2019-04-10T12:13:06.346Z,10.30
2019-04-10T12:15:53.995Z,10.30
2019-04-10T12:18:42.536Z,10.40
2019-04-10T12:21:31.617Z,10.40
2019-04-10T12:24:19.402Z,10.30
2019-04-10T12:27:07.015Z,10.40
2019-04-10T12:29:55.085Z,10.40
2019-04-10T12:32:43.097Z,10.30
2019-04-10T12:35:31.929Z,10.30
2019-04-10T12:38:20.005Z,10.40
2019-04-10T12:41:08.885Z,10.40
2019-04-10T12:43:56.967Z,10.40
2019-04-10T12:46:45.679Z,10.30
2019-04-10T12:49:33.896Z,10.10
2019-04-10T12:52:22.718Z,10.10
2019-04-10T12:55:10.714Z,10.00
2019-04-10T12:58:06.515Z,9.80
2019-04-10T13:00:48.073Z,9.70
2019-04-10T13:03:35.613Z,9.70
2019-04-10T13:06:24.213Z,9.70
2019-04-10T13:09:13.422Z,9.60
2019-04-10T13:12:01.824Z,9.70
2019-04-10T13:14:50.532Z,9.60
2019-04-10T13:17:38.900Z,9.50
2019-04-10T13:20:26.172Z,9.50
2019-04-10T13:23:16.241Z,9.50
2019-04-10T13:26:06.394Z,9.60
2019-04-10T13:28:53.912Z,9.50
2019-04-10T13:31:42.520Z,9.60
2019-04-10T13:34:30.441Z,9.50
2019-04-10T13:37:18.065Z,9.50
2019-04-10T13:40:07.648Z,9.60
2019-04-10T13:42:55.732Z,9.60
2019-04-10T13:45:43.835Z,9.50
2019-04-10T13:48:31.565Z,9.60
2019-04-10T13:51:19.380Z,9.70
2019-04-10T13:54:07.165Z,9.70
2019-04-10T13:56:55.225Z,9.70
2019-04-10T13:59:43.124Z,9.80
2019-04-10T14:02:37.489Z,9.80
2019-04-10T14:05:27.576Z,9.80
2019-04-10T14:08:16.668Z,9.80
2019-04-10T14:11:04.762Z,9.80
2019-04-10T14:13:52.407Z,9.80
2019-04-10T14:16:41.155Z,9.90
2019-04-10T14:19:29.926Z,9.90
2019-04-10T14:22:17.882Z,9.90
2019-04-10T14:25:08.142Z,9.90
2019-04-10T14:27:56.415Z,9.90
2019-04-10T14:30:45.270Z,9.90
2019-04-10T14:33:33.192Z,9.90
2019-04-10T14:36:22.296Z,9.90
2019-04-10T14:39:19.603Z,9.90
2019-04-10T14:42:06.215Z,9.90
2019-04-10T14:44:55.100Z,9.90
2019-04-10T14:47:43.472Z,9.90
2019-04-10T14:50:32.401Z,9.90
2019-04-10T14:53:20.932Z,9.80
2019-04-10T14:56:08.711Z,9.80
2019-04-10T14:58:57.789Z,9.70
2019-04-10T15:01:46.309Z,9.70
2019-04-10T15:04:33.924Z,9.70
2019-04-10T15:07:21.919Z,9.70
2019-04-10T15:10:10.889Z,9.70
2019-04-10T15:13:07.455Z,9.70
2019-04-10T15:15:48.351Z,9.70
2019-04-10T15:18:37.208Z,9.70
2019-04-10T15:21:25.099Z,9.70
2019-04-10T15:24:13.214Z,9.70
2019-04-10T15:27:02.646Z,9.60
2019-04-10T15:29:50.610Z,9.60
2019-04-10T15:32:38.461Z,9.60
2019-04-10T15:35:26.552Z,9.60
2019-04-10T15:38:14.717Z,9.60
2019-04-10T15:41:02.980Z,9.70
2019-04-10T15:43:51.676Z,9.70
2019-04-10T15:46:39.485Z,9.70
2019-04-10T15:49:27.312Z,9.70
2019-04-10T15:52:15.199Z,9.70
2019-04-10T15:55:03.661Z,9.60
2019-04-10T15:57:55.291Z,9.60
2019-04-10T16:00:41.371Z,9.60
2019-04-10T16:03:30.257Z,9.60
2019-04-10T16:06:18.504Z,9.60
2019-04-10T16:09:09.151Z,9.60
2019-04-10T16:12:19.033Z,9.60
2019-04-10T16:15:08.881Z,9.50
2019-04-10T16:18:07.766Z,9.50
2019-04-10T16:20:55.475Z,9.50
2019-04-10T16:23:47.869Z,9.50
2019-04-10T16:26:55.865Z,9.50
2019-04-10T16:29:44.831Z,9.40
2019-04-10T16:32:33.335Z,9.40
2019-04-10T16:35:23.099Z,9.40
2019-04-10T16:38:12.061Z,9.50
2019-04-10T16:41:02.657Z,9.40
2019-04-10T16:43:50.787Z,9.40
2019-04-10T16:46:38.568Z,9.40
2019-04-10T16:49:26.323Z,9.40
2019-04-10T16:52:14.599Z,9.40
2019-04-10T16:55:02.937Z,9.40
2019-04-10T16:57:51.407Z,9.40
2019-04-10T17:00:39.714Z,9.40
2019-04-10T17:03:27.593Z,9.40
2019-04-10T17:06:15.623Z,9.40
2019-04-10T17:09:04.802Z,9.30
2019-04-10T17:11:53.743Z,9.30
2019-04-10T17:14:41.936Z,9.30
2019-04-10T17:17:30.217Z,9.30
2019-04-10T17:20:18.313Z,9.20
2019-04-10T17:23:07.983Z,9.20
2019-04-10T17:25:55.923Z,9.20
2019-04-10T17:28:44.829Z,9.20
2019-04-10T17:31:32.921Z,9.10
2019-04-10T17:34:20.849Z,9.10
2019-04-10T17:37:09.720Z,9.10
2019-04-10T17:39:57.731Z,9.10
2019-04-10T17:42:46.335Z,9.10
2019-04-10T17:45:34.668Z,9.10
2019-04-10T17:48:22.749Z,9.10
2019-04-10T17:51:11.968Z,9.10
2019-04-10T17:54:00.228Z,9.10
2019-04-10T17:56:48.527Z,9.00
2019-04-10T17:59:37.188Z,8.90
2019-04-10T18:02:25.467Z,8.90
2019-04-10T18:05:13.173Z,9.00
2019-04-10T18:08:00.930Z,8.90
2019-04-10T18:10:52.337Z,9.00
2019-04-10T18:13:38.465Z,8.90
2019-04-10T18:16:26.130Z,9.00
2019-04-10T18:19:15.420Z,9.00
2019-04-10T18:22:04.084Z,9.00
2019-04-10T18:24:53.741Z,9.00
2019-04-10T18:27:42.840Z,9.00
2019-04-10T18:30:32.966Z,9.00
2019-04-10T18:33:20.421Z,9.00
2019-04-10T18:36:08.205Z,8.90
2019-04-10T18:38:56.069Z,8.90
2019-04-10T18:41:44.354Z,8.90
2019-04-10T18:44:33.102Z,9.00
2019-04-10T18:47:20.712Z,9.00
2019-04-10T18:50:09.889Z,9.00
2019-04-10T18:52:57.876Z,9.00
2019-04-10T18:55:46.788Z,9.00
2019-04-10T18:58:40.881Z,9.00
2019-04-10T19:01:47.711Z,8.90
2019-04-10T19:04:49.462Z,8.90
2019-04-10T19:07:38.394Z,8.90
2019-04-10T19:10:26.381Z,8.90
2019-04-10T19:13:14.984Z,8.90
2019-04-10T19:16:03.492Z,8.80
2019-04-10T19:18:52.264Z,8.80
2019-04-10T19:21:42.038Z,8.80
2019-04-10T19:24:30.409Z,8.80
2019-04-10T19:27:18.704Z,8.80
2019-04-10T19:30:10.994Z,8.90
2019-04-10T19:32:59.535Z,8.80
2019-04-10T19:35:47.571Z,8.80
2019-04-10T19:38:35.697Z,8.80
2019-04-10T19:41:29.656Z,8.80
2019-04-10T19:44:13.258Z,8.80
2019-04-10T19:47:02.072Z,8.80
2019-04-10T19:49:50.143Z,8.80
2019-04-10T19:52:38.388Z,8.80
2019-04-10T19:55:26.093Z,8.80
2019-04-10T19:58:14.203Z,8.80
2019-04-10T20:01:03.240Z,8.80
2019-04-10T20:03:51.972Z,8.80
2019-04-10T20:06:40.643Z,8.80
2019-04-10T20:09:28.786Z,8.70
2019-04-10T20:12:16.798Z,8.70
2019-04-10T20:15:04.488Z,8.70
2019-04-10T20:17:52.527Z,8.70
2019-04-10T20:20:41.548Z,8.70
2019-04-10T20:23:29.978Z,8.60
2019-04-10T20:26:17.440Z,8.70
2019-04-10T20:29:06.596Z,8.70
2019-04-10T20:31:57.442Z,8.60
2019-04-10T20:34:45.419Z,8.60
2019-04-10T20:37:34.445Z,8.60
2019-04-10T20:40:22.540Z,8.60
2019-04-10T20:43:10.937Z,8.70
2019-04-10T20:45:58.472Z,8.70
2019-04-10T20:48:46.757Z,8.60
2019-04-10T20:51:34.725Z,8.60
2019-04-10T20:54:22.502Z,8.60
2019-04-10T20:57:10.856Z,8.60
2019-04-10T20:59:59.549Z,8.60
2019-04-10T21:02:47.251Z,8.60
2019-04-10T21:05:35.909Z,8.60
2019-04-10T21:08:23.745Z,8.60
2019-04-10T21:11:11.803Z,8.60
2019-04-10T21:13:59.976Z,8.60
2019-04-10T21:16:48.358Z,8.60
2019-04-10T21:19:37.450Z,8.60
2019-04-10T21:22:26.463Z,8.60
2019-04-10T21:25:14.936Z,8.60
2019-04-10T21:28:02.768Z,8.60
2019-04-10T21:31:01.908Z,8.60
2019-04-10T21:34:07.763Z,8.60
2019-04-10T21:36:56.043Z,8.60
2019-04-10T21:39:43.998Z,8.50
2019-04-10T21:42:31.899Z,8.50
2019-04-10T21:45:20.204Z,8.50
2019-04-10T21:48:08.605Z,8.50
2019-04-10T21:50:56.536Z,8.40
2019-04-10T21:53:45.150Z,8.40
2019-04-10T21:56:33.248Z,8.40
2019-04-10T21:59:22.652Z,8.40
2019-04-10T22:02:11.263Z,8.40
2019-04-10T22:04:59.669Z,8.40
2019-04-10T22:08:11.085Z,8.40
2019-04-10T22:10:59.084Z,8.40
2019-04-10T22:13:48.576Z,8.40
2019-04-10T22:16:37.933Z,8.40
2019-04-10T22:19:26.364Z,8.40
2019-04-10T22:22:14.607Z,8.40
2019-04-10T22:25:03.454Z,8.30
2019-04-10T22:27:52.208Z,8.30
2019-04-10T22:30:41.499Z,8.30
2019-04-10T22:33:30.035Z,8.30
2019-04-10T22:36:18.335Z,8.30
2019-04-10T22:39:09.179Z,8.30
2019-04-10T22:41:56.926Z,8.30
2019-04-10T22:44:46.488Z,8.40
2019-04-10T22:47:34.336Z,8.30
2019-04-10T22:50:22.721Z,8.40
2019-04-10T22:53:10.940Z,8.30
2019-04-10T22:56:00.367Z,8.30
2019-04-10T22:58:49.016Z,8.30
2019-04-10T23:01:37.599Z,8.30
2019-04-10T23:04:26.454Z,8.30
2019-04-10T23:07:14.298Z,8.30
2019-04-10T23:10:02.610Z,8.30
2019-04-10T23:12:59.137Z,8.30
2019-04-10T23:15:40.215Z,8.30
2019-04-10T23:18:29.614Z,8.30
2019-04-10T23:21:18.555Z,8.30
2019-04-10T23:24:07.566Z,8.30
2019-04-10T23:26:55.484Z,8.30
2019-04-10T23:29:44.289Z,8.30
2019-04-10T23:32:32.130Z,8.40
2019-04-10T23:35:21.183Z,8.30
2019-04-10T23:38:09.214Z,8.30
2019-04-10T23:40:57.096Z,8.30
2019-04-10T23:43:46.130Z,8.30
2019-04-10T23:46:34.665Z,8.30
2019-04-10T23:49:23.511Z,8.30
2019-04-10T23:52:11.773Z,8.30
2019-04-10T23:54:59.877Z,8.30
2019-04-10T23:57:47.892Z,8.30
